createdAt,value
2022-10-18T00:02:11.442Z,71.40
2022-10-18T00:04:37.975Z,71.40
2022-10-18T00:07:04.470Z,71.40
2022-10-18T00:09:31.071Z,71.40
2022-10-18T00:11:57.641Z,71.40
2022-10-18T00:14:24.411Z,71.50
2022-10-18T00:16:50.902Z,71.50
2022-10-18T00:19:17.383Z,71.40
2022-10-18T00:24:12.095Z,71.40
2022-10-18T00:26:38.623Z,71.40
2022-10-18T00:29:05.666Z,71.30
2022-10-18T00:31:33.709Z,71.40
2022-10-18T00:34:01.603Z,71.40
2022-10-18T00:36:28.865Z,71.30
2022-10-18T00:38:55.567Z,71.40
2022-10-18T00:41:24.296Z,71.40
2022-10-18T00:44:11.033Z,71.40
2022-10-18T00:46:38.785Z,71.30
2022-10-18T00:49:10.657Z,71.40
2022-10-18T00:51:42.455Z,71.40
2022-10-18T00:54:08.956Z,71.40
2022-10-18T00:56:35.831Z,71.30
2022-10-18T00:59:02.434Z,71.30
2022-10-18T01:01:28.967Z,71.30
2022-10-18T01:03:56.105Z,71.40
2022-10-18T01:06:22.822Z,71.40
2022-10-18T01:09:04.196Z,71.40
2022-10-18T01:11:41.056Z,71.30
2022-10-18T01:14:15.160Z,71.40
2022-10-18T01:16:50.194Z,71.40
2022-10-18T01:19:28.455Z,71.30
2022-10-18T01:22:01.583Z,71.30
2022-10-18T01:24:33.930Z,71.30
2022-10-18T01:27:15.807Z,71.30
2022-10-18T01:29:45.337Z,71.30
2022-10-18T01:32:22.809Z,71.40
2022-10-18T01:34:51.113Z,71.30
2022-10-18T01:37:19.662Z,71.30
2022-10-18T01:39:46.894Z,71.30
2022-10-18T01:42:15.171Z,71.40
2022-10-18T01:44:42.757Z,71.30
2022-10-18T01:47:10.292Z,71.30
2022-10-18T01:49:36.815Z,71.30
2022-10-18T01:52:03.392Z,71.30
2022-10-18T01:54:33.237Z,71.30
2022-10-18T01:57:05.791Z,71.30
2022-10-18T01:59:47.581Z,71.30
2022-10-18T02:02:23.275Z,71.30
2022-10-18T02:05:08.676Z,71.30
2022-10-18T02:08:00.114Z,71.30
2022-10-18T02:10:42.452Z,71.30
2022-10-18T02:13:11.098Z,71.20
2022-10-18T02:15:39.772Z,71.20
2022-10-18T02:18:08.075Z,71.20
2022-10-18T02:20:36.387Z,71.20
2022-10-18T02:23:03.697Z,71.30
2022-10-18T02:25:31.758Z,71.20
2022-10-18T02:27:58.378Z,71.30
2022-10-18T02:30:30.315Z,71.20
2022-10-18T02:32:59.442Z,71.20
2022-10-18T02:35:29.609Z,71.20
2022-10-18T02:37:57.007Z,71.20
2022-10-18T02:40:24.306Z,71.20
2022-10-18T02:42:53.424Z,71.20
2022-10-18T02:45:20.361Z,71.20
2022-10-18T02:47:47.071Z,71.20
2022-10-18T02:50:14.031Z,71.20
2022-10-18T02:52:40.579Z,71.30
2022-10-18T02:55:07.636Z,71.20
2022-10-18T02:57:34.525Z,71.20
2022-10-18T03:00:01.309Z,71.20
2022-10-18T03:02:28.010Z,71.10
2022-10-18T03:04:54.505Z,71.20
2022-10-18T03:07:20.990Z,71.10
2022-10-18T03:09:47.507Z,71.20
2022-10-18T03:12:14.018Z,71.20
2022-10-18T03:14:40.534Z,71.20
2022-10-18T03:17:07.038Z,71.10
2022-10-18T03:19:33.885Z,71.20
2022-10-18T03:22:00.361Z,71.10
2022-10-18T03:24:26.855Z,71.10
2022-10-18T03:26:53.334Z,71.10
2022-10-18T03:29:19.818Z,71.20
2022-10-18T03:31:46.366Z,71.10
2022-10-18T03:34:12.878Z,71.10
2022-10-18T03:36:41.215Z,71.10
2022-10-18T03:39:07.766Z,71.10
2022-10-18T03:41:34.299Z,71.10
2022-10-18T03:44:00.771Z,71.10
2022-10-18T03:46:27.261Z,71.00
2022-10-18T03:48:53.746Z,71.10
2022-10-18T03:51:20.244Z,71.10
2022-10-18T03:53:46.762Z,71.10
2022-10-18T03:56:13.249Z,71.10
2022-10-18T03:58:39.788Z,71.00
2022-10-18T04:01:06.962Z,70.90
2022-10-18T04:03:33.521Z,71.10
2022-10-18T04:06:00.686Z,71.20
2022-10-18T04:08:27.357Z,71.00
2022-10-18T04:10:53.882Z,71.10
2022-10-18T04:13:20.379Z,71.00
2022-10-18T04:15:46.886Z,71.00
2022-10-18T04:18:13.381Z,71.00
2022-10-18T04:20:39.879Z,71.00
2022-10-18T04:23:06.599Z,71.10
2022-10-18T04:25:33.135Z,71.00
2022-10-18T04:27:59.663Z,71.10
2022-10-18T04:30:26.154Z,71.00
2022-10-18T04:32:52.651Z,71.00
2022-10-18T04:35:24.256Z,71.00
2022-10-18T04:37:50.862Z,71.00
2022-10-18T04:40:17.442Z,71.00
2022-10-18T04:42:43.932Z,71.00
2022-10-18T04:45:10.989Z,71.00
2022-10-18T04:47:37.519Z,71.00
2022-10-18T04:50:04.741Z,70.90
2022-10-18T04:52:31.437Z,70.90
2022-10-18T04:54:57.909Z,65.80
2022-10-18T04:57:24.410Z,65.50
2022-10-18T04:59:50.894Z,65.80
2022-10-18T05:02:17.447Z,66.30
2022-10-18T05:04:43.934Z,66.90
2022-10-18T05:07:10.556Z,67.10
2022-10-18T05:09:37.070Z,67.30
2022-10-18T05:12:03.651Z,67.40
2022-10-18T05:14:30.159Z,67.60
2022-10-18T05:16:56.650Z,67.90
2022-10-18T05:19:23.147Z,67.80
2022-10-18T05:21:49.764Z,67.70
2022-10-18T05:24:16.263Z,67.60
2022-10-18T05:26:42.818Z,67.70
2022-10-18T05:29:09.471Z,68.00
2022-10-18T05:31:36.081Z,68.50
2022-10-18T05:34:02.933Z,67.80
2022-10-18T05:36:29.535Z,68.70
2022-10-18T05:38:58.658Z,67.70
2022-10-18T05:41:27.596Z,67.70
2022-10-18T05:43:54.087Z,68.40
2022-10-18T05:46:20.590Z,69.90
2022-10-18T05:48:51.234Z,71.90
2022-10-18T05:51:20.737Z,72.50
2022-10-18T05:53:47.443Z,72.70
2022-10-18T05:56:14.378Z,72.20
2022-10-18T05:58:41.636Z,72.10
2022-10-18T06:01:08.947Z,71.80
2022-10-18T06:03:35.506Z,71.80
2022-10-18T06:06:03.297Z,71.60
2022-10-18T06:08:29.848Z,71.40
2022-10-18T06:10:56.635Z,71.30
2022-10-18T06:13:23.187Z,71.30
2022-10-18T06:15:50.012Z,71.30
2022-10-18T06:18:16.643Z,71.20
2022-10-18T06:20:43.198Z,71.20
2022-10-18T06:23:09.742Z,71.30
2022-10-18T06:25:36.222Z,71.30
2022-10-18T06:28:05.983Z,71.60
2022-10-18T06:30:35.118Z,71.60
2022-10-18T06:33:01.676Z,71.60
2022-10-18T06:35:28.177Z,71.50
2022-10-18T06:37:54.701Z,71.70
2022-10-18T06:40:21.282Z,71.80
2022-10-18T06:42:59.920Z,71.60
2022-10-18T06:45:27.244Z,71.60
2022-10-18T06:47:53.758Z,71.60
2022-10-18T06:50:20.239Z,71.50
2022-10-18T06:52:48.815Z,71.30
2022-10-18T06:55:15.302Z,71.40
2022-10-18T06:57:41.789Z,71.40
2022-10-18T07:00:08.680Z,71.30
2022-10-18T07:02:35.281Z,71.40
2022-10-18T07:05:01.834Z,71.30
2022-10-18T07:07:31.078Z,71.60
2022-10-18T07:09:57.891Z,71.40
2022-10-18T07:12:24.517Z,71.50
2022-10-18T07:14:51.060Z,71.40
2022-10-18T07:17:17.584Z,71.50
2022-10-18T07:19:44.069Z,71.50
2022-10-18T07:22:10.557Z,71.40
2022-10-18T07:24:37.050Z,71.40
2022-10-18T07:27:03.597Z,71.40
2022-10-18T07:29:30.133Z,71.40
2022-10-18T07:31:57.535Z,71.40
2022-10-18T07:34:24.027Z,71.50
2022-10-18T07:36:50.577Z,71.40
2022-10-18T07:39:17.070Z,71.50
2022-10-18T07:41:43.660Z,71.40
2022-10-18T07:44:10.886Z,71.40
2022-10-18T07:46:37.386Z,71.40
2022-10-18T07:49:03.966Z,71.20
2022-10-18T07:51:32.664Z,71.20
2022-10-18T07:53:59.452Z,71.30
2022-10-18T07:56:25.947Z,71.40
2022-10-18T07:58:53.423Z,71.40
2022-10-18T08:01:24.003Z,72.30
2022-10-18T08:03:50.949Z,71.40
2022-10-18T08:06:18.448Z,71.50
2022-10-18T08:08:45.433Z,71.50
2022-10-18T08:11:14.736Z,71.40
2022-10-18T08:13:41.385Z,71.40
2022-10-18T08:16:09.285Z,71.40
2022-10-18T08:18:36.230Z,71.40
2022-10-18T08:21:03.742Z,71.40
2022-10-18T08:23:30.556Z,71.40
2022-10-18T08:25:57.103Z,71.40
2022-10-18T08:28:23.680Z,71.30
2022-10-18T08:30:50.299Z,71.30
2022-10-18T08:33:16.806Z,71.40
2022-10-18T08:35:43.380Z,71.30
2022-10-18T08:38:16.433Z,71.30
2022-10-18T08:40:44.913Z,71.30
2022-10-18T08:43:30.084Z,71.40
2022-10-18T08:45:56.999Z,71.40
2022-10-18T08:48:27.319Z,71.30
2022-10-18T08:50:55.623Z,71.40
2022-10-18T08:53:33.098Z,71.30
2022-10-18T08:56:06.080Z,71.20
2022-10-18T08:58:33.497Z,71.30
2022-10-18T09:01:10.884Z,71.20
2022-10-18T09:03:37.420Z,71.10
2022-10-18T09:06:11.666Z,71.10
2022-10-18T09:08:44.143Z,71.10
2022-10-18T09:11:25.826Z,71.10
2022-10-18T09:13:55.334Z,71.10
2022-10-18T09:16:28.114Z,71.80
2022-10-18T09:19:03.540Z,71.20
2022-10-18T09:21:41.723Z,71.20
2022-10-18T09:24:13.175Z,71.20
2022-10-18T09:26:47.041Z,71.30
2022-10-18T09:29:25.816Z,71.10
2022-10-18T09:32:04.663Z,71.20
2022-10-18T09:34:48.274Z,71.30
2022-10-18T09:37:16.814Z,71.30
2022-10-18T09:39:43.877Z,71.30
2022-10-18T09:42:26.487Z,71.20
2022-10-18T09:44:55.562Z,71.10
2022-10-18T09:47:25.019Z,71.20
2022-10-18T09:50:00.221Z,71.20
2022-10-18T09:52:28.458Z,71.20
2022-10-18T09:54:57.281Z,71.20
2022-10-18T09:57:27.820Z,71.30
2022-10-18T09:59:54.411Z,71.30
2022-10-18T10:02:22.402Z,71.20
2022-10-18T10:04:49.554Z,71.10
2022-10-18T10:07:29.791Z,71.20
2022-10-18T10:10:04.578Z,71.10
2022-10-18T10:12:32.489Z,71.20
2022-10-18T10:15:07.959Z,71.10
2022-10-18T10:17:34.982Z,71.10
2022-10-18T10:20:20.211Z,71.10
2022-10-18T10:22:47.858Z,71.10
2022-10-18T10:25:28.633Z,71.00
2022-10-18T10:27:55.151Z,71.00
2022-10-18T10:30:24.642Z,71.00
2022-10-18T10:32:51.832Z,71.00
2022-10-18T10:35:53.665Z,71.00
2022-10-18T10:38:28.099Z,70.90
2022-10-18T10:40:54.779Z,70.90
2022-10-18T10:43:38.299Z,70.90
2022-10-18T10:46:06.059Z,70.90
2022-10-18T10:48:34.307Z,70.90
2022-10-18T10:51:06.891Z,70.90
2022-10-18T10:53:39.499Z,70.90
2022-10-18T10:56:06.802Z,70.90
2022-10-18T10:58:37.930Z,70.80
2022-10-18T11:01:18.408Z,70.80
2022-10-18T11:03:49.489Z,71.50
2022-10-18T11:06:29.558Z,70.80
2022-10-18T11:08:57.799Z,70.80
2022-10-18T11:11:30.786Z,70.80
2022-10-18T11:14:24.618Z,70.80
2022-10-18T11:16:54.848Z,70.80
2022-10-18T11:19:39.946Z,70.80
2022-10-18T11:22:09.562Z,70.80
2022-10-18T11:24:36.197Z,70.80
2022-10-18T11:27:05.852Z,70.70
2022-10-18T11:29:38.422Z,70.80
2022-10-18T11:32:14.051Z,70.80
2022-10-18T11:34:52.299Z,70.80
2022-10-18T11:37:37.458Z,70.70
2022-10-18T11:40:23.488Z,70.70
2022-10-18T11:42:56.067Z,70.70
2022-10-18T11:45:25.852Z,70.70
2022-10-18T11:48:04.314Z,70.70
2022-10-18T11:50:36.814Z,70.70
2022-10-18T11:53:20.331Z,70.70
2022-10-18T11:55:49.814Z,70.80
2022-10-18T11:58:16.287Z,70.70
2022-10-18T12:00:52.296Z,70.70
2022-10-18T12:03:25.004Z,70.70
2022-10-18T12:05:52.690Z,70.70
2022-10-18T12:08:22.014Z,70.70
2022-10-18T12:11:08.956Z,70.60
2022-10-18T12:13:57.585Z,70.60
2022-10-18T12:16:45.916Z,70.50
2022-10-18T12:19:23.313Z,70.50
2022-10-18T12:21:53.794Z,70.40
2022-10-18T12:24:22.528Z,70.50
2022-10-18T12:26:51.775Z,70.40
2022-10-18T12:29:30.882Z,70.50
2022-10-18T12:31:59.324Z,70.50
2022-10-18T12:34:34.290Z,70.60
2022-10-18T12:37:26.378Z,70.50
2022-10-18T12:40:16.774Z,70.40
2022-10-18T12:42:44.631Z,70.50
2022-10-18T12:45:17.103Z,70.50
2022-10-18T12:47:43.845Z,70.50
2022-10-18T12:50:34.849Z,70.40
2022-10-18T12:53:22.615Z,70.40
2022-10-18T12:55:51.319Z,70.30
2022-10-18T12:58:22.844Z,70.30
2022-10-18T13:00:49.321Z,70.40
2022-10-18T13:03:18.974Z,70.40
2022-10-18T13:05:53.917Z,70.30
2022-10-18T13:08:27.949Z,70.20
2022-10-18T13:11:09.974Z,70.30
2022-10-18T13:13:54.686Z,70.30
2022-10-18T13:16:27.314Z,71.10
2022-10-18T13:19:08.837Z,70.10
2022-10-18T13:21:55.649Z,70.10
2022-10-18T13:24:45.589Z,70.00
2022-10-18T13:27:36.637Z,70.10
2022-10-18T13:30:15.861Z,70.20
2022-10-18T13:32:52.424Z,70.30
2022-10-18T13:35:37.691Z,70.30
2022-10-18T13:38:05.185Z,70.00
2022-10-18T13:40:34.534Z,69.90
2022-10-18T13:43:20.970Z,70.00
2022-10-18T13:45:53.967Z,70.00
2022-10-18T13:48:29.403Z,70.10
2022-10-18T13:51:03.327Z,70.10
2022-10-18T13:53:41.780Z,70.20
2022-10-18T13:56:20.546Z,70.20
2022-10-18T13:59:06.181Z,70.10
2022-10-18T14:01:52.931Z,70.10
2022-10-18T14:04:37.735Z,70.00
2022-10-18T14:07:05.805Z,69.90
2022-10-18T14:09:52.503Z,70.00
2022-10-18T14:12:34.881Z,69.80
2022-10-18T14:15:17.999Z,69.80
2022-10-18T14:17:58.886Z,69.80
2022-10-18T14:20:29.919Z,69.80
2022-10-18T14:23:16.085Z,69.80
2022-10-18T14:25:43.068Z,69.80
2022-10-18T14:28:16.691Z,69.90
2022-10-18T14:30:59.628Z,69.80
2022-10-18T14:33:26.164Z,69.90
2022-10-18T14:35:59.823Z,70.70
2022-10-18T14:38:26.348Z,69.90
2022-10-18T14:41:04.255Z,69.90
2022-10-18T14:43:30.743Z,69.90
2022-10-18T14:46:08.263Z,69.80
2022-10-18T14:48:34.780Z,69.90
2022-10-18T14:51:03.211Z,69.80
2022-10-18T14:53:36.811Z,69.80
2022-10-18T14:56:07.460Z,69.80
2022-10-18T14:58:35.479Z,69.90
2022-10-18T15:01:02.346Z,69.80
2022-10-18T15:03:32.031Z,70.60
2022-10-18T15:05:59.755Z,69.80
2022-10-18T15:08:38.253Z,69.80
2022-10-18T15:11:09.315Z,69.80
2022-10-18T15:13:42.244Z,69.90
2022-10-18T15:16:15.595Z,70.60
2022-10-18T15:18:42.095Z,71.10
2022-10-18T15:21:14.411Z,71.30
2022-10-18T15:23:40.970Z,71.30
2022-10-18T15:26:09.679Z,70.80
2022-10-18T15:28:39.326Z,70.60
2022-10-18T15:31:06.696Z,70.30
2022-10-18T15:33:36.241Z,70.20
2022-10-18T15:36:17.611Z,70.30
2022-10-18T15:38:47.553Z,70.20
2022-10-18T15:41:35.351Z,70.30
2022-10-18T15:44:13.166Z,70.50
2022-10-18T15:46:40.758Z,70.10
2022-10-18T15:49:36.621Z,70.30
2022-10-18T15:52:10.593Z,70.30
2022-10-18T15:54:37.214Z,70.30
2022-10-18T15:57:07.464Z,70.20
2022-10-18T15:59:34.015Z,70.30
2022-10-18T16:02:00.889Z,70.50
2022-10-18T16:04:31.481Z,70.30
2022-10-18T16:06:58.444Z,70.50
2022-10-18T16:09:26.373Z,70.50
2022-10-18T16:11:56.934Z,70.40
2022-10-18T16:14:24.517Z,70.50
2022-10-18T16:16:55.174Z,70.50
2022-10-18T16:19:22.662Z,70.60
2022-10-18T16:21:49.837Z,70.50
2022-10-18T16:24:16.805Z,70.60
2022-10-18T16:26:43.360Z,70.60
2022-10-18T16:29:21.716Z,70.60
2022-10-18T16:31:49.667Z,69.60
2022-10-18T16:34:16.186Z,70.10
2022-10-18T16:36:43.009Z,70.30
2022-10-18T16:39:19.486Z,70.40
2022-10-18T16:41:46.296Z,70.70
2022-10-18T16:44:13.078Z,71.10
2022-10-18T16:46:40.858Z,71.20
2022-10-18T16:49:07.826Z,71.70
2022-10-18T16:51:34.407Z,71.40
2022-10-18T16:54:01.022Z,70.90
2022-10-18T16:56:28.979Z,70.40
2022-10-18T16:58:55.591Z,70.00
2022-10-18T17:01:23.459Z,69.90
2022-10-18T17:03:52.099Z,70.00
2022-10-18T17:06:20.687Z,70.10
2022-10-18T17:08:47.528Z,70.00
2022-10-18T17:11:14.795Z,70.10
2022-10-18T17:13:41.420Z,70.10
2022-10-18T17:16:18.805Z,70.20
2022-10-18T17:18:45.388Z,70.20
2022-10-18T17:21:11.914Z,70.50
2022-10-18T17:23:38.934Z,70.20
2022-10-18T17:26:21.880Z,70.20
2022-10-18T17:28:52.992Z,70.40
2022-10-18T17:31:19.574Z,70.30
2022-10-18T17:33:46.095Z,70.20
2022-10-18T17:36:13.081Z,70.20
2022-10-18T17:38:39.639Z,70.20
2022-10-18T17:41:10.226Z,70.20
2022-10-18T17:43:37.734Z,70.30
2022-10-18T17:46:04.639Z,70.40
2022-10-18T17:48:31.142Z,70.30
2022-10-18T17:50:57.793Z,70.20
2022-10-18T17:53:28.457Z,70.30
2022-10-18T17:56:02.667Z,70.30
2022-10-18T17:58:29.720Z,70.30
2022-10-18T18:00:56.215Z,70.60
2022-10-18T18:03:22.855Z,70.10
2022-10-18T18:05:49.451Z,70.60
2022-10-18T18:08:16.048Z,70.60
2022-10-18T18:10:42.580Z,70.50
2022-10-18T18:13:09.125Z,70.60
2022-10-18T18:15:35.694Z,70.80
2022-10-18T18:18:02.356Z,70.70
2022-10-18T18:20:28.855Z,70.70
2022-10-18T18:22:55.389Z,70.80
2022-10-18T18:25:21.901Z,70.60
2022-10-18T18:27:48.442Z,70.80
2022-10-18T18:30:17.599Z,71.10
2022-10-18T18:32:44.119Z,70.90
2022-10-18T18:35:10.662Z,70.80
2022-10-18T18:37:37.201Z,70.80
2022-10-18T18:40:04.007Z,70.60
2022-10-18T18:42:30.642Z,70.50
2022-10-18T18:44:57.326Z,70.60
2022-10-18T18:47:23.983Z,70.20
2022-10-18T18:49:51.537Z,69.60
2022-10-18T18:52:18.122Z,69.20
2022-10-18T18:54:44.968Z,68.90
2022-10-18T18:57:11.449Z,68.80
2022-10-18T18:59:38.012Z,68.60
2022-10-18T19:02:04.513Z,68.60
2022-10-18T19:04:31.103Z,68.40
2022-10-18T19:06:57.676Z,68.50
2022-10-18T19:09:26.335Z,68.40
2022-10-18T19:11:53.661Z,68.40
2022-10-18T19:14:20.195Z,68.40
2022-10-18T19:16:47.769Z,68.10
2022-10-18T19:19:15.412Z,68.50
2022-10-18T19:21:43.368Z,69.00
2022-10-18T19:24:09.887Z,69.40
2022-10-18T19:26:39.373Z,69.40
2022-10-18T19:29:07.892Z,69.70
2022-10-18T19:31:34.901Z,69.60
2022-10-18T19:34:02.362Z,69.70
2022-10-18T19:36:29.168Z,69.70
2022-10-18T19:38:55.742Z,69.80
2022-10-18T19:41:23.514Z,69.90
2022-10-18T19:43:50.801Z,70.10
2022-10-18T19:46:17.383Z,69.70
2022-10-18T19:48:43.944Z,69.60
2022-10-18T19:51:12.270Z,69.70
2022-10-18T19:53:42.443Z,69.70
2022-10-18T19:56:09.618Z,69.70
2022-10-18T19:58:36.225Z,69.80
2022-10-18T20:01:02.876Z,69.90
2022-10-18T20:03:30.656Z,69.80
2022-10-18T20:05:58.151Z,69.90
2022-10-18T20:08:25.639Z,69.70
2022-10-18T20:10:57.801Z,69.70
2022-10-18T20:13:24.328Z,69.90
2022-10-18T20:15:51.402Z,69.80
2022-10-18T20:18:18.544Z,69.90
2022-10-18T20:20:48.137Z,69.50
2022-10-18T20:23:15.550Z,69.70
2022-10-18T20:25:42.273Z,69.50
2022-10-18T20:28:09.040Z,69.50
2022-10-18T20:30:35.624Z,69.60
2022-10-18T20:33:02.193Z,69.60
2022-10-18T20:35:28.701Z,69.80
2022-10-18T20:37:55.231Z,69.70
2022-10-18T20:40:21.755Z,69.80
2022-10-18T20:42:48.401Z,69.80
2022-10-18T20:45:14.961Z,70.00
2022-10-18T20:47:41.657Z,70.00
2022-10-18T20:50:09.083Z,70.00
2022-10-18T20:52:35.639Z,70.10
2022-10-18T20:55:02.124Z,70.60
2022-10-18T20:57:31.731Z,70.70
2022-10-18T21:00:00.772Z,70.50
2022-10-18T21:02:27.336Z,70.50
2022-10-18T21:04:53.971Z,70.50
2022-10-18T21:07:20.549Z,70.60
2022-10-18T21:09:47.133Z,70.80
2022-10-18T21:12:13.642Z,70.80
2022-10-18T21:14:40.140Z,70.70
2022-10-18T21:17:06.740Z,70.80
2022-10-18T21:19:33.349Z,70.70
2022-10-18T21:21:59.967Z,70.60
2022-10-18T21:24:26.610Z,70.60
2022-10-18T21:26:53.812Z,70.60
2022-10-18T21:29:22.589Z,70.40
2022-10-18T21:31:49.468Z,70.30
2022-10-18T21:34:17.361Z,70.20
2022-10-18T21:36:44.616Z,70.20
2022-10-18T21:39:16.329Z,70.20
2022-10-18T21:41:43.131Z,71.00
2022-10-18T21:44:11.174Z,70.30
2022-10-18T21:46:39.147Z,70.30
2022-10-18T21:49:06.144Z,70.30
2022-10-18T21:51:32.669Z,70.10
2022-10-18T21:53:59.230Z,70.00
2022-10-18T21:56:27.548Z,70.10
2022-10-18T21:58:54.674Z,69.90
2022-10-18T22:01:43.486Z,69.90
2022-10-18T22:04:17.972Z,70.00
2022-10-18T22:06:44.505Z,70.10
2022-10-18T22:09:11.008Z,70.20
2022-10-18T22:11:40.108Z,70.10
2022-10-18T22:14:06.620Z,70.00
2022-10-18T22:16:33.140Z,69.90
2022-10-18T22:19:00.943Z,69.90
2022-10-18T22:21:27.916Z,69.80
2022-10-18T22:23:56.924Z,69.80
2022-10-18T22:26:27.953Z,69.90
2022-10-18T22:28:56.247Z,69.90
2022-10-18T22:31:23.590Z,69.80
2022-10-18T22:33:57.610Z,69.90
2022-10-18T22:36:24.612Z,69.70
2022-10-18T22:38:51.260Z,69.70
2022-10-18T22:41:17.860Z,69.70
2022-10-18T22:43:44.624Z,69.70
2022-10-18T22:46:12.147Z,69.60
2022-10-18T22:48:38.933Z,69.60
2022-10-18T22:51:05.958Z,69.60
2022-10-18T22:53:33.036Z,69.40
2022-10-18T22:55:59.663Z,69.40
2022-10-18T22:58:26.288Z,69.40
2022-10-18T23:00:59.730Z,69.50
2022-10-18T23:03:26.232Z,69.50
2022-10-18T23:05:52.755Z,69.40
2022-10-18T23:08:19.295Z,69.50
2022-10-18T23:10:45.876Z,69.40
2022-10-18T23:13:12.477Z,69.40
2022-10-18T23:15:39.054Z,69.50
2022-10-18T23:18:05.893Z,69.60
2022-10-18T23:20:32.467Z,69.70
2022-10-18T23:22:58.952Z,69.60
2022-10-18T23:25:25.548Z,69.70
2022-10-18T23:27:52.111Z,69.60
2022-10-18T23:30:18.734Z,69.60
2022-10-18T23:32:45.260Z,69.60
2022-10-18T23:35:11.747Z,69.60
2022-10-18T23:37:38.271Z,69.60
2022-10-18T23:40:05.032Z,69.60
2022-10-18T23:42:31.551Z,69.60
2022-10-18T23:44:58.075Z,69.50
2022-10-18T23:47:24.618Z,69.50
2022-10-18T23:49:51.156Z,69.40
2022-10-18T23:52:17.979Z,69.40
2022-10-18T23:57:15.965Z,69.60
2022-10-18T23:59:42.494Z,69.50
